Bluefield, WV

07:20 EDT le 20 octobre 2014 (GMT -0400)
New River Valley | Change Station
CLOSE
Current Station
Aéroport
Location: Dublin,
Altitude: 2106 ft
Stations météo à proximité
Avis météorologiques actifs: Frost Advisory

Alt. 2106 ft 37.14 °N, 80.68 °W | Updated 25 minutes ago

Partiellement nuageux
Partiellement nuageux
36 ° F
Paraît 36 ° F
N
0
Vent Variable Vent de Nord

Aujourd'hui
Haut(e) -- | Bas -- ° F
--% Risque de précip.
Hier
Haut(e) -- | Bas -- ° F
Precip. -- pouce
7:37 AM 6:41 PM
Lune descendante, 11% visible
Pression 30.11 pouce
Visibilité 10.0 Miles terrestres
Nuages Ciel dégagé
Point de rosée 36 ° F
Humidité 100%
Précipitations 0.00 pouce
Profondeur de la couche neigeuse Non disponible.
UV 0 sur 12
Pollen 1.60 sur 12
Qualité de l'air Non disponible.
Flu Activity Sporadic
METAR KPSK 201055Z AUTO 00000KT 10SM CLR 02/02 A3011 RMK AO2 T00220022

More Conditions Fewer Conditions

Pression 30.11 pouce
Visibilité 10.0 Miles terrestres
Nuages Ciel dégagé
Point de rosée 36 ° F
Humidité 100%
Précipitations 0.00 pouce
Profondeur de la couche neigeuse Non disponible.
UV 0 sur 12
Pollen 1.60 sur 12
Qualité de l'air Non disponible.
Flu Activity Sporadic
METAR KPSK 201055Z AUTO 00000KT 10SM CLR 02/02 A3011 RMK AO2 T00220022

More Conditions Fewer Conditions

10-Day Weather Forecast

Almanac

Astronomie

Oct. 20, 2014 Lever Coucher
Temps réel 07:37 EDT 18:41 EDT
Crépuscule civil 07:10 EDT 19:07 EDT
Crépuscule nautique 06:40 EDT 19:37 EDT
Crépuscule astronomique 06:10 EDT 20:08 EDT
Lune 04:28 EDT 16:59 EDT
Durée de lumière visible 11h 56m
Longueur du jour
11h 03m
Lune descendante, 11% of the Moon is Illuminated
Aujourd'hui
Lune descendante
Oct 23
Nouveau
Oct 30
Premier quartier
Nov 6
Pleine lune
Nov 14
Dernier quartier

Extrêmes aujourd'hui

State Highs State Lows

Community

WunderPhotos

Upload Photos

1,763,338 Photos téléchargées !

Nearby

Épaisseur de neige

Station Depth Altitude
Pas de nouvelles chutes de neige

Activité sismique

Ville Distance Mag. Time & Date
No recent earthquake activity has been reported nearby.
Minimum magnitude displayed is 2.5.

Températures des eaux côtières

Lieu Température
Aucun rapport de station

Stations météo à proximité